Summit, Vermont
Current Conditions -  °F | °C
As of 5:55 PM on Thursday 20 Nov 2014 (Local Time) from KRUT Reporting Station
Clear Clear  
Wind Chill: 18°   Ceiling: Unl
Heat Index: 28°   Visibility: 10mi
Dew Point: 10°   Wind: 12mph
Humidity: 47%   Direction: 230°SW
Pressure: 29.83"   Gusts: 21mph
Location:  43.437°N, 72.7883°W
Report Text: KRUT 202255Z 23010G18KT 10SM CLR M02/M12 A2983 RMK AO1
Loading
Personal Weather Stations






























Interactive Weather Map New forecast layout! Learn more

10-Day Weather Forecast

Advertisements
Track Severe Weather on mobile